Time;durP1;ratioP1;P1;durP2;ratioP2;P2;SDS_P1;SDS_P2;PMS_P1;PMS_P2;Temp;Humidity;BMP_temperature;BMP_pressure;BME280_temperature;BME280_humidity;BME280_pressure;Samples;Min_cycle;Max_cycle;Signal;HPM_P1;HPM_P2
2024/04/10 04:58:18;;;;;;;;;;;;;;;17.46;72.44;100498.66;1862020;76;20127;-70
2024/04/10 05:00:46;;;;;;;;;;;;;;;17.70;71.24;100497.24;1820469;77;20097;-70
2024/04/10 05:04:54;;;;;;;;;;;;;;;17.99;70.15;100502.36;1818652;78;20090;-80
2024/04/10 05:05:40;;;;;;;;;;;;;;;18.27;69.23;100501.00;1808665;77;20165;-71
2024/04/10 05:08:08;;;;;;;;;;;;;;;18.55;68.49;100505.34;1829951;78;20081;-74
2024/04/10 05:10:35;;;;;;;;;;;;;;;18.83;67.72;100509.20;1809705;78;20113;-73
2024/04/10 05:13:04;;;;;;;;;;;;;;;19.09;66.80;100507.04;1819549;78;20168;-70
2024/04/10 05:15:31;;;;;;;;;;;;;;;19.35;66.00;100514.06;1826142;78;20110;-72
2024/04/10 05:18:02;;;;;;;;;;;;;;;19.59;64.85;100509.37;1809030;78;20153;-75
2024/04/10 05:20:31;;;;;;;;;;;;;;;19.81;63.61;100511.81;1820432;78;20185;-76
2024/04/10 05:22:57;;;;;;;;;;;;;;;20.05;62.22;100519.38;1823659;78;20192;-71
2024/04/10 05:25:23;;;;;;;;;;;;;;;20.25;61.76;100522.92;1804174;78;20108;-77
2024/04/10 05:28:00;;;;;;;;;;;;;;;20.48;61.67;100521.72;1782192;78;20135;-74
2024/04/10 05:30:51;;;;;;;;;;;;;;;20.71;61.19;100528.92;1821668;78;20116;-75
2024/04/10 05:33:21;;;;;;;;;;;;;;;20.96;60.14;100520.89;1798942;78;20100;-79
2024/04/10 05:35:59;;;;;;;;;;;;;;;21.14;59.20;100523.67;1813633;78;20160;-73
2024/04/10 05:38:25;;;;;;;;;;;;;;;21.32;58.18;100521.14;1831005;78;20101;-72
2024/04/10 05:40:53;;;;;;;;;;;;;;;21.52;57.69;100528.06;1822362;77;20128;-75
2024/04/10 05:43:24;;;;;;;;;;;;;;;21.73;56.93;100534.47;1815927;78;20129;-75
2024/04/10 05:45:55;;;;;;;;;;;;;;;21.97;55.50;100537.45;1819759;78;20149;-70
2024/04/10 05:48:23;;;;;;;;;;;;;;;22.16;54.19;100532.55;1820430;78;20156;-72
2024/04/10 05:51:00;;;;;;;;;;;;;;;22.32;53.47;100533.23;1813710;78;20127;-77
2024/04/10 05:53:27;;;;;;;;;;;;;;;22.44;53.31;100537.31;1817786;78;20149;-71
2024/04/10 05:55:55;;;;;;;;;;;;;;;22.62;52.65;100546.97;1817669;77;20139;-73
2024/04/10 05:58:29;;;;;;;;;;;;;;;22.76;51.77;100548.27;1801234;79;20116;-78
2024/04/10 06:01:07;;;;;;;;;;;;;;;22.84;50.51;100545.70;1820651;79;20098;-78
2024/04/10 06:03:34;;;;;;;;;;;;;;;22.89;50.41;100547.89;1776192;80;20138;-77
2024/04/10 06:06:08;;;;;;;;;;;;;;;22.88;50.42;100552.37;1756396;81;20107;-73
2024/04/10 06:08:35;;;;;;;;;;;;;;;22.87;50.20;100556.02;1760344;80;20135;-77
2024/04/10 06:11:01;;;;;;;;;;;;;;;22.87;50.15;100557.84;1762806;81;20130;-79
2024/04/10 06:13:29;;;;;;;;;;;;;;;22.90;49.99;100556.20;1746697;80;20128;-72
2024/04/10 06:15:59;;;;;;;;;;;;;;;22.99;49.88;100561.09;1777872;80;20382;-80
2024/04/10 06:18:27;;;;;;;;;;;;;;;23.14;49.25;100559.58;1773407;80;20157;-81
2024/04/10 06:21:01;;;;;;;;;;;;;;;23.35;48.60;100565.36;1762761;80;20134;-77
2024/04/10 06:23:28;;;;;;;;;;;;;;;23.56;48.42;100557.08;1774967;80;20125;-72
2024/04/10 06:26:01;;;;;;;;;;;;;;;23.79;47.94;100550.20;1749237;81;20158;-72
2024/04/10 06:28:25;;;;;;;;;;;;;;;24.05;47.08;100551.97;1760593;80;20157;-71
2024/04/10 06:30:59;;;;;;;;;;;;;;;24.21;46.52;100542.73;1772547;81;20088;-74
2024/04/10 06:33:25;;;;;;;;;;;;;;;24.31;46.39;100543.95;1760315;81;20127;-81
2024/04/10 06:35:51;;;;;;;;;;;;;;;24.36;45.94;100544.30;1776651;80;20134;-71
2024/04/10 06:38:18;;;;;;;;;;;;;;;24.34;45.43;100546.30;1781481;80;20132;-77
2024/04/10 06:41:06;;;;;;;;;;;;;;;24.26;45.58;100549.77;1751374;81;20494;-71
2024/04/10 06:43:33;;;;;;;;;;;;;;;24.15;45.50;100547.36;1753302;80;20139;-72
2024/04/10 06:46:02;;;;;;;;;;;;;;;24.14;45.11;100545.19;1780647;80;20122;-78
2024/04/10 06:48:35;;;;;;;;;;;;;;;24.21;44.71;100540.89;1775138;80;20157;-71
2024/04/10 06:51:06;;;;;;;;;;;;;;;24.37;44.16;100548.64;1741575;80;20166;-74
2024/04/10 06:53:34;;;;;;;;;;;;;;;24.54;43.77;100551.65;1771396;81;20128;-74
2024/04/10 06:56:02;;;;;;;;;;;;;;;24.70;42.88;100549.52;1712415;83;20149;-87
2024/04/10 06:58:30;;;;;;;;;;;;;;;24.83;42.30;100546.68;1761260;79;20150;-72
2024/04/10 07:01:02;;;;;;;;;;;;;;;24.95;41.50;100549.86;1762080;80;20198;-75
2024/04/10 07:03:31;;;;;;;;;;;;;;;25.08;40.60;100550.73;1764497;79;20202;-77
2024/04/10 07:06:09;;;;;;;;;;;;;;;25.23;39.85;100560.52;1766740;79;20203;-78
2024/04/10 07:08:39;;;;;;;;;;;;;;;25.42;39.54;100563.84;1699165;80;20183;-75
2024/04/10 07:11:11;;;;;;;;;;;;;;;25.63;38.78;100560.62;1776140;80;20390;-76
2024/04/10 07:13:35;;;;;;;;;;;;;;;25.84;38.70;100560.94;1770062;79;20390;-74
2024/04/10 07:16:03;;;;;;;;;;;;;;;26.01;38.08;100569.70;1758571;79;20171;-75
2024/04/10 07:18:33;;;;;;;;;;;;;;;26.14;38.09;100553.47;1772892;79;20117;-72
2024/04/10 07:21:06;;;;;;;;;;;;;;;26.29;37.68;100557.58;1766592;79;20505;-71
2024/04/10 07:23:33;;;;;;;;;;;;;;;26.46;37.69;100558.33;1756576;79;20105;-83
2024/04/10 07:26:13;;;;;;;;;;;;;;;26.67;37.01;100555.03;1756134;79;20107;-77
2024/04/10 07:28:45;;;;;;;;;;;;;;;26.89;36.93;100555.52;1775942;81;20152;-75
2024/04/10 07:31:31;;;;;;;;;;;;;;;27.08;36.92;100559.08;1751499;82;20159;-72
2024/04/10 07:33:59;;;;;;;;;;;;;;;27.23;36.97;100557.25;1760818;81;20111;-72
2024/04/10 07:36:26;;;;;;;;;;;;;;;27.39;36.40;100562.13;1780607;80;20413;-76
2024/04/10 07:38:57;;;;;;;;;;;;;;;27.52;36.30;100562.34;1775696;80;20162;-77
2024/04/10 07:41:24;;;;;;;;;;;;;;;27.62;36.36;100559.41;1719146;80;20136;-78
2024/04/10 07:43:51;;;;;;;;;;;;;;;27.72;36.15;100554.62;1742663;81;20147;-75
2024/04/10 07:46:20;;;;;;;;;;;;;;;27.83;36.29;100553.66;1751087;81;20404;-72
2024/04/10 07:48:49;;;;;;;;;;;;;;;27.96;36.41;100553.01;1728542;82;20137;-81
2024/04/10 07:51:16;;;;;;;;;;;;;;;28.10;35.87;100552.64;1732422;82;20103;-78
2024/04/10 07:53:43;;;;;;;;;;;;;;;28.25;35.66;100554.00;1740511;81;20177;-74
2024/04/10 07:56:10;;;;;;;;;;;;;;;28.41;35.70;100550.56;1751752;81;20420;-73
2024/04/10 07:58:37;;;;;;;;;;;;;;;28.53;35.59;100561.11;1752985;82;20098;-77
2024/04/10 08:01:03;;;;;;;;;;;;;;;28.62;34.88;100561.00;1756072;81;20099;-69
2024/04/10 08:03:33;;;;;;;;;;;;;;;28.68;34.55;100562.91;1740651;80;20131;-79
2024/04/10 08:06:00;;;;;;;;;;;;;;;28.74;33.84;100556.29;1773276;80;20475;-76
2024/04/10 08:08:28;;;;;;;;;;;;;;;28.79;33.48;100561.08;1747045;81;20143;-73
2024/04/10 08:11:00;;;;;;;;;;;;;;;28.83;33.18;100559.67;1742868;81;20131;-72
2024/04/10 08:13:27;;;;;;;;;;;;;;;28.89;32.92;100564.27;1754062;81;20114;-75
2024/04/10 08:16:07;;;;;;;;;;;;;;;28.92;32.30;100563.89;1745025;81;20106;-78
2024/04/10 08:18:35;;;;;;;;;;;;;;;28.92;31.92;100569.77;1761984;81;20121;-75
2024/04/10 08:21:07;;;;;;;;;;;;;;;28.94;31.58;100568.55;1746534;81;20134;-74
2024/04/10 08:23:38;;;;;;;;;;;;;;;28.99;31.69;100572.83;1747416;82;20137;-79
2024/04/10 08:26:11;;;;;;;;;;;;;;;29.01;30.88;100567.27;1752701;81;20168;-75
2024/04/10 08:28:53;;;;;;;;;;;;;;;28.95;31.23;100570.72;1753447;81;20111;-72
2024/04/10 08:31:23;;;;;;;;;;;;;;;28.91;31.67;100566.25;1744293;81;20148;-74
2024/04/10 08:33:50;;;;;;;;;;;;;;;28.92;31.79;100569.77;1743774;81;20100;-75
2024/04/10 08:36:17;;;;;;;;;;;;;;;28.94;32.19;100571.74;1734402;81;20159;-73
2024/04/10 08:38:44;;;;;;;;;;;;;;;28.97;31.60;100566.00;1749385;81;20502;-74
2024/04/10 08:41:16;;;;;;;;;;;;;;;28.97;30.75;100566.00;1732493;81;20103;-82
2024/04/10 08:43:46;;;;;;;;;;;;;;;28.98;30.10;100572.51;1766240;81;20136;-77
2024/04/10 08:46:17;;;;;;;;;;;;;;;28.96;30.20;100573.21;1747416;81;20162;-75
2024/04/10 08:48:45;;;;;;;;;;;;;;;28.94;30.24;100572.57;1774911;80;20131;-74
2024/04/10 08:51:16;;;;;;;;;;;;;;;28.92;30.57;100566.57;1768318;79;20076;-78
2024/04/10 08:54:04;;;;;;;;;;;;;;;28.94;30.31;100570.41;1755535;79;20639;-79
2024/04/10 08:56:31;;;;;;;;;;;;;;;28.94;29.72;100567.21;1743724;81;20136;-79
2024/04/10 08:58:57;;;;;;;;;;;;;;;28.88;29.58;100562.10;1774593;79;20094;-81
2024/04/10 09:01:33;;;;;;;;;;;;;;;28.80;29.74;100573.42;1784265;80;20121;-72
2024/04/10 09:04:10;;;;;;;;;;;;;;;28.76;29.52;100562.80;1728642;82;20189;-84
2024/04/10 09:06:37;;;;;;;;;;;;;;;28.67;29.57;100566.62;1743786;81;20158;-82
2024/04/10 09:09:09;;;;;;;;;;;;;;;28.57;30.04;100568.77;1767305;80;20109;-76
2024/04/10 09:11:33;;;;;;;;;;;;;;;28.46;30.25;100561.55;1737434;80;20140;-74
2024/04/10 09:14:04;;;;;;;;;;;;;;;28.33;29.74;100565.44;1757783;80;20122;-86
2024/04/10 09:16:32;;;;;;;;;;;;;;;28.21;29.98;100571.78;1744879;80;20165;-81
2024/04/10 09:19:15;;;;;;;;;;;;;;;28.06;30.51;100577.62;1764729;81;20130;-84
2024/04/10 09:21:59;;;;;;;;;;;;;;;27.95;30.51;100578.11;1766373;80;20105;-74
2024/04/10 09:24:28;;;;;;;;;;;;;;;27.84;30.79;100581.25;1791838;79;20124;-76
2024/04/10 09:27:00;;;;;;;;;;;;;;;27.71;30.71;100579.72;1786130;80;20147;-75
2024/04/10 09:29:28;;;;;;;;;;;;;;;27.59;30.94;100575.34;1786152;79;20149;-74
2024/04/10 09:31:53;;;;;;;;;;;;;;;27.45;31.54;100582.30;1779466;79;20183;-77
2024/04/10 09:34:53;;;;;;;;;;;;;;;27.30;31.23;100581.94;1785244;80;20106;-74
2024/04/10 09:37:41;;;;;;;;;;;;;;;27.11;31.26;100584.12;1777200;80;20121;-79
2024/04/10 09:40:08;;;;;;;;;;;;;;;26.97;31.56;100577.38;1792131;79;20141;-82
2024/04/10 09:42:37;;;;;;;;;;;;;;;26.85;31.69;100572.41;1790280;80;20114;-77
2024/04/10 09:45:12;;;;;;;;;;;;;;;26.79;32.00;100566.98;1792133;80;20126;-81
2024/04/10 09:47:39;;;;;;;;;;;;;;;26.73;31.84;100573.03;1758618;80;20556;-74
2024/04/10 09:50:10;;;;;;;;;;;;;;;26.66;31.98;100572.91;1757968;80;20141;-75
2024/04/10 09:52:37;;;;;;;;;;;;;;;26.61;31.88;100567.77;1791148;80;20155;-75
2024/04/10 09:55:03;;;;;;;;;;;;;;;26.51;31.95;100558.13;1732940;82;20101;-74
2024/04/10 09:57:30;;;;;;;;;;;;;;;26.45;31.98;100561.50;1759349;81;20408;-81
2024/04/10 09:59:56;;;;;;;;;;;;;;;26.38;32.23;100560.56;1736854;80;20114;-78
2024/04/10 10:02:23;;;;;;;;;;;;;;;26.30;32.63;100561.91;1755275;80;20410;-76
2024/04/10 10:04:51;;;;;;;;;;;;;;;26.23;32.55;100562.27;1736915;81;20463;-81
2024/04/10 10:07:23;;;;;;;;;;;;;;;26.18;32.99;100568.64;1777209;80;20152;-80
2024/04/10 10:09:50;;;;;;;;;;;;;;;26.13;33.14;100574.99;1730635;82;20160;-77
2024/04/10 10:12:26;;;;;;;;;;;;;;;26.05;32.69;100570.52;1729646;82;20146;-78
2024/04/10 10:14:52;;;;;;;;;;;;;;;25.98;32.11;100579.41;1728909;82;20438;-71
2024/04/10 10:17:22;;;;;;;;;;;;;;;25.88;31.99;100573.77;1744153;82;20206;-71
2024/04/10 10:19:49;;;;;;;;;;;;;;;25.83;32.27;100567.28;1739345;81;20475;-73
2024/04/10 10:22:15;;;;;;;;;;;;;;;25.78;32.42;100569.13;1756899;81;20091;-71
2024/04/10 10:24:42;;;;;;;;;;;;;;;25.75;33.25;100568.63;1778199;80;20129;-70
2024/04/10 10:27:08;;;;;;;;;;;;;;;25.72;32.97;100572.47;1722674;82;20129;-75
2024/04/10 10:29:36;;;;;;;;;;;;;;;25.68;33.29;100563.14;1749046;82;20158;-71
2024/04/10 10:32:05;;;;;;;;;;;;;;;25.65;33.60;100571.98;1715155;81;20090;-71
2024/04/10 10:34:33;;;;;;;;;;;;;;;25.59;33.80;100568.96;1722468;82;20114;-73
2024/04/10 10:37:04;;;;;;;;;;;;;;;25.55;33.76;100574.33;1772276;81;20144;-72
2024/04/10 10:39:32;;;;;;;;;;;;;;;25.51;34.24;100569.51;1737210;82;20432;-73
2024/04/10 10:42:04;;;;;;;;;;;;;;;25.48;34.00;100569.34;1744450;81;20435;-73
2024/04/10 10:47:19;;;;;;;;;;;;;;;25.44;34.19;100571.18;1786611;80;20098;-74
2024/04/10 10:50:02;;;;;;;;;;;;;;;25.42;34.19;100571.34;1773024;80;20113;-71
2024/04/10 10:52:57;;;;;;;;;;;;;;;25.39;33.96;100562.35;1776629;80;20374;-74
2024/04/10 10:55:31;;;;;;;;;;;;;;;25.33;33.99;100569.69;1769046;80;20128;-81
2024/04/10 10:58:11;;;;;;;;;;;;;;;25.28;34.28;100568.52;1736411;82;20142;-73
2024/04/10 11:00:53;;;;;;;;;;;;;;;25.26;34.70;100562.86;1731255;81;20525;-75
2024/04/10 11:03:20;;;;;;;;;;;;;;;25.25;34.62;100574.52;1718854;81;20211;-76
2024/04/10 11:06:40;;;;;;;;;;;;;;;25.25;34.60;100564.36;1705485;83;20560;-70
2024/04/10 11:09:15;;;;;;;;;;;;;;;25.22;34.28;100574.02;1704697;82;20222;-70
2024/04/10 11:11:42;;;;;;;;;;;;;;;25.18;33.93;100566.05;1726600;82;20262;-77
2024/04/10 11:14:13;;;;;;;;;;;;;;;25.15;34.20;100565.89;1713073;82;20175;-73
2024/04/10 11:16:43;;;;;;;;;;;;;;;25.12;33.70;100568.05;1709637;82;20206;-77
2024/04/10 11:19:09;;;;;;;;;;;;;;;25.08;34.16;100571.55;1704859;82;20104;-74
2024/04/10 11:21:35;;;;;;;;;;;;;;;25.07;33.73;100570.38;1712362;82;20093;-78
2024/04/10 11:24:03;;;;;;;;;;;;;;;25.04;34.29;100563.55;1714604;82;20222;-74
2024/04/10 11:26:31;;;;;;;;;;;;;;;25.03;34.23;100559.22;1716935;83;20208;-76
2024/04/10 11:28:59;;;;;;;;;;;;;;;25.03;34.48;100557.89;1714523;83;20102;-77
2024/04/10 11:31:25;;;;;;;;;;;;;;;25.03;34.25;100557.89;1709909;82;20109;-77
2024/04/10 11:33:52;;;;;;;;;;;;;;;25.03;34.34;100554.39;1726035;81;20127;-78
2024/04/10 11:36:18;;;;;;;;;;;;;;;25.01;35.19;100551.06;1758703;81;20101;-72
2024/04/10 11:38:49;;;;;;;;;;;;;;;25.02;35.37;100558.05;1763260;80;20344;-72
2024/04/10 11:41:18;;;;;;;;;;;;;;;25.03;35.19;100557.89;1779314;80;20648;-76
2024/04/10 11:43:49;;;;;;;;;;;;;;;25.03;34.91;100551.72;1758168;80;20101;-73
2024/04/10 11:46:15;;;;;;;;;;;;;;;25.02;34.89;100552.72;1753127;81;20161;-74
2024/04/10 11:48:53;;;;;;;;;;;;;;;25.02;34.83;100547.39;1767496;79;20196;-76
2024/04/10 11:51:37;;;;;;;;;;;;;;;25.01;34.84;100553.22;1724396;82;20099;-76
2024/04/10 11:54:21;;;;;;;;;;;;;;;25.00;35.03;100545.39;1723052;82;20133;-76
2024/04/10 11:56:52;;;;;;;;;;;;;;;24.97;34.74;100545.23;1722469;82;20173;-76
2024/04/10 11:59:23;;;;;;;;;;;;;;;24.96;35.26;100540.06;1743444;81;20190;-78
2024/04/10 12:02:23;;;;;;;;;;;;;;;24.95;35.26;100541.86;1664313;82;20130;-75
2024/04/10 12:05:14;;;;;;;;;;;;;;;24.94;35.33;100538.86;1728965;81;20177;-77
2024/04/10 12:07:49;;;;;;;;;;;;;;;24.93;35.25;100545.19;1750829;81;20440;-75
2024/04/10 12:10:16;;;;;;;;;;;;;;;24.92;35.50;100545.69;1755588;82;20127;-71
2024/04/10 12:12:48;;;;;;;;;;;;;;;24.92;35.56;100538.20;1776582;80;20585;-73
2024/04/10 12:15:15;;;;;;;;;;;;;;;24.92;35.18;100537.70;1775073;80;20099;-70
2024/04/10 12:17:45;;;;;;;;;;;;;;;24.91;34.54;100535.20;1776919;80;20162;-74
2024/04/10 12:20:16;;;;;;;;;;;;;;;24.91;33.97;100538.70;1758417;81;20143;-75
2024/04/10 12:22:42;;;;;;;;;;;;;;;24.90;33.61;100541.03;1782497;79;20194;-72
2024/04/10 12:25:09;;;;;;;;;;;;;;;24.89;34.04;100547.36;1764654;80;20120;-73
2024/04/10 12:28:09;;;;;;;;;;;;;;;24.89;34.62;100541.19;1761547;81;20157;-76
2024/04/10 12:30:36;;;;;;;;;;;;;;;24.86;34.74;100534.36;1737368;81;20132;-71
2024/04/10 12:33:37;;;;;;;;;;;;;;;24.87;34.49;100538.70;1757567;80;20446;-70
2024/04/10 12:38:36;;;;;;;;;;;;;;;24.85;34.31;100527.38;1756780;81;20383;-78
2024/04/10 12:41:06;;;;;;;;;;;;;;;24.84;34.35;100530.20;1748751;82;20161;-74
2024/04/10 12:43:42;;;;;;;;;;;;;;;24.83;34.16;100528.53;1745968;81;20433;-73
2024/04/10 12:46:08;;;;;;;;;;;;;;;24.82;34.30;100525.53;1750556;81;20188;-70
2024/04/10 12:48:35;;;;;;;;;;;;;;;24.80;34.25;100523.03;1753834;79;20183;-70
2024/04/10 12:51:07;;;;;;;;;;;;;;;24.79;34.30;100524.56;1735806;81;20160;-76
2024/04/10 12:53:33;;;;;;;;;;;;;;;24.79;34.70;100529.89;1728365;82;20115;-70
2024/04/10 12:56:00;;;;;;;;;;;;;;;24.78;34.78;100526.89;1770712;80;20219;-72
2024/04/10 12:58:27;;;;;;;;;;;;;;;24.78;34.69;100524.23;1726170;82;20101;-78
2024/04/10 13:00:57;;;;;;;;;;;;;;;24.76;34.33;100515.57;1744895;80;20130;-73
2024/04/10 13:03:27;;;;;;;;;;;;;;;24.75;33.99;100515.23;1702921;82;20210;-75
2024/04/10 13:05:56;;;;;;;;;;;;;;;24.72;34.07;100512.41;1740603;80;20132;-74
2024/04/10 13:08:23;;;;;;;;;;;;;;;24.72;34.43;100516.90;1748356;80;20126;-73
2024/04/10 13:10:49;;;;;;;;;;;;;;;24.71;34.87;100518.73;1773357;80;20128;-70
2024/04/10 13:13:18;;;;;;;;;;;;;;;24.70;34.99;100515.73;1774215;80;20421;-73
2024/04/10 13:15:45;;;;;;;;;;;;;;;24.70;34.98;100514.90;1774846;80;20117;-70
2024/04/10 13:18:11;;;;;;;;;;;;;;;24.68;35.50;100515.56;1770678;80;20172;-76
2024/04/10 13:20:38;;;;;;;;;;;;;;;24.66;35.49;100511.73;1773733;80;20440;-72
2024/04/10 13:23:04;;;;;;;;;;;;;;;24.64;35.27;100508.90;1777984;80;20128;-72
2024/04/10 13:25:31;;;;;;;;;;;;;;;24.63;35.40;100512.06;1782751;80;20100;-78
2024/04/10 13:27:58;;;;;;;;;;;;;;;24.60;34.85;100517.22;1769120;80;20114;-73
2024/04/10 13:30:26;;;;;;;;;;;;;;;24.58;35.25;100511.22;1782572;80;20374;-75
2024/04/10 13:32:52;;;;;;;;;;;;;;;24.56;35.44;100512.38;1783063;80;20104;-75
2024/04/10 13:35:19;;;;;;;;;;;;;;;24.55;35.33;100512.05;1784850;80;20102;-77
2024/04/10 13:37:45;;;;;;;;;;;;;;;24.52;35.35;100507.87;1782391;80;20125;-77
2024/04/10 13:40:13;;;;;;;;;;;;;;;24.49;35.40;100502.88;1757056;81;20122;-68
2024/04/10 13:42:40;;;;;;;;;;;;;;;24.48;35.45;100510.53;1769725;79;20127;-71
2024/04/10 13:45:06;;;;;;;;;;;;;;;24.47;35.56;100509.36;1770488;80;20128;-76
2024/04/10 13:47:34;;;;;;;;;;;;;;;24.45;35.26;100508.20;1761706;79;20132;-70
2024/04/10 13:50:01;;;;;;;;;;;;;;;24.45;35.26;100510.86;1780801;80;20216;-84
2024/04/10 13:52:27;;;;;;;;;;;;;;;24.43;35.61;100511.52;1782960;80;20132;-80
2024/04/10 13:54:54;;;;;;;;;;;;;;;24.43;35.87;100514.68;1783041;79;20112;-73
2024/04/10 13:57:20;;;;;;;;;;;;;;;24.41;35.78;100514.84;1756964;82;20154;-70
2024/04/10 13:59:53;;;;;;;;;;;;;;;24.39;35.55;100511.51;1779517;80;20495;-74
